createdAt,value
2022-11-22T00:01:58.463Z,93722.00
2022-11-22T00:06:02.661Z,93718.00
2022-11-22T00:10:05.993Z,93718.00
2022-11-22T00:14:08.729Z,93695.00
2022-11-22T00:18:11.735Z,93705.00
2022-11-22T00:22:15.747Z,93708.00
2022-11-22T00:26:18.440Z,93707.00
2022-11-22T00:30:21.359Z,93715.00
2022-11-22T00:34:24.115Z,93721.00
2022-11-22T00:38:28.237Z,93724.00
2022-11-22T00:42:30.949Z,93738.00
2022-11-22T00:46:33.662Z,93729.00
2022-11-22T00:50:36.769Z,93735.00
2022-11-22T00:54:40.805Z,93753.00
2022-11-22T00:58:43.517Z,93750.00
2022-11-22T01:02:46.341Z,93738.00
2022-11-22T01:06:49.101Z,93740.00
2022-11-22T01:10:58.273Z,93748.00
2022-11-22T01:15:00.984Z,93743.00
2022-11-22T01:19:03.994Z,93736.00
2022-11-22T01:23:06.749Z,93741.00
2022-11-22T01:27:10.797Z,93720.00
2022-11-22T01:31:13.504Z,93715.00
2022-11-22T01:35:16.322Z,93719.00
2022-11-22T01:39:19.261Z,93703.00
2022-11-22T01:43:25.039Z,93705.00
2022-11-22T01:47:28.428Z,93712.00
2022-11-22T01:51:35.539Z,93722.00
2022-11-22T01:55:38.540Z,93722.00
2022-11-22T01:59:47.457Z,93716.00
2022-11-22T02:03:51.625Z,93710.00
2022-11-22T02:08:00.331Z,93701.00
2022-11-22T02:12:05.657Z,93690.00
2022-11-22T02:16:11.146Z,93699.00
2022-11-22T02:20:16.932Z,93708.00
2022-11-22T02:24:26.076Z,93707.00
2022-11-22T02:28:33.333Z,93721.00
2022-11-22T02:32:36.112Z,93729.00
2022-11-22T02:36:42.349Z,93723.00
2022-11-22T02:40:51.164Z,93723.00
2022-11-22T02:44:55.341Z,93718.00
2022-11-22T02:48:58.052Z,93718.00
2022-11-22T02:53:00.796Z,93731.00
2022-11-22T02:57:03.831Z,93725.00
2022-11-22T03:01:07.930Z,93729.00
2022-11-22T03:05:10.950Z,93728.00
2022-11-22T03:09:13.645Z,93728.00
2022-11-22T03:13:16.354Z,93730.00
2022-11-22T03:17:20.463Z,93732.00
2022-11-22T03:21:23.177Z,93732.00
2022-11-22T03:25:27.584Z,93738.00
2022-11-22T03:29:30.937Z,93747.00
2022-11-22T03:33:35.762Z,93750.00
2022-11-22T03:37:38.556Z,93750.00
2022-11-22T03:41:41.319Z,93743.00
2022-11-22T03:45:46.335Z,93762.00
2022-11-22T03:49:50.379Z,93753.00
2022-11-22T03:53:53.073Z,93767.00
2022-11-22T03:57:55.782Z,93756.00
2022-11-22T04:01:58.524Z,93762.00
2022-11-22T04:06:02.663Z,93755.00
2022-11-22T04:10:06.695Z,93753.00
2022-11-22T04:14:30.131Z,93755.00
2022-11-22T04:18:32.829Z,93770.00
2022-11-22T04:22:36.921Z,93766.00
2022-11-22T04:26:39.603Z,93771.00
2022-11-22T04:31:00.046Z,93769.00
2022-11-22T04:35:02.754Z,93769.00
2022-11-22T04:39:06.771Z,93768.00
2022-11-22T04:43:30.797Z,93767.00
2022-11-22T04:47:51.127Z,93775.00
2022-11-22T04:52:11.365Z,93770.00
2022-11-22T04:56:15.568Z,93775.00
2022-11-22T05:00:19.098Z,93778.00
2022-11-22T05:04:21.797Z,93771.00
2022-11-22T05:08:24.609Z,93772.00
2022-11-22T05:12:28.697Z,93772.00
2022-11-22T05:16:31.372Z,93779.00
2022-11-22T05:20:34.088Z,93791.00
2022-11-22T05:24:36.824Z,93796.00
2022-11-22T05:28:40.932Z,93792.00
2022-11-22T05:32:43.601Z,93792.00
2022-11-22T05:36:46.351Z,93800.00
2022-11-22T05:40:49.117Z,93813.00
2022-11-22T05:44:53.224Z,93804.00
2022-11-22T05:48:57.554Z,93795.00
2022-11-22T05:53:02.777Z,93798.00
2022-11-22T05:57:05.473Z,93802.00
2022-11-22T06:01:11.641Z,93801.00
2022-11-22T06:05:14.439Z,93809.00
2022-11-22T06:09:17.334Z,93811.00
2022-11-22T06:13:20.061Z,93817.00
2022-11-22T06:17:24.121Z,93810.00
2022-11-22T06:21:28.478Z,93806.00
2022-11-22T06:25:32.298Z,93810.00
2022-11-22T06:29:35.016Z,93817.00
2022-11-22T06:33:40.085Z,93813.00
2022-11-22T06:37:42.772Z,93832.00
2022-11-22T06:41:45.562Z,93836.00
2022-11-22T06:45:48.233Z,93841.00
2022-11-22T06:49:52.373Z,93852.00
2022-11-22T06:53:56.069Z,93854.00
2022-11-22T06:57:58.741Z,93868.00
2022-11-22T07:02:06.131Z,93872.00
2022-11-22T07:06:12.850Z,93879.00
2022-11-22T07:10:16.333Z,93888.00
2022-11-22T07:14:19.105Z,93891.00
2022-11-22T07:18:21.824Z,93893.00
2022-11-22T07:22:25.964Z,93896.00
2022-11-22T07:26:28.833Z,93899.00
2022-11-22T07:30:31.572Z,93895.00
2022-11-22T07:34:34.325Z,93900.00
2022-11-22T07:38:38.857Z,93904.00
2022-11-22T07:42:41.589Z,93915.00
2022-11-22T07:46:44.482Z,93922.00
2022-11-22T07:50:47.154Z,93925.00
2022-11-22T07:54:51.182Z,93927.00
2022-11-22T07:58:53.916Z,93934.00
2022-11-22T08:02:56.842Z,93944.00
2022-11-22T08:06:59.566Z,93952.00
2022-11-22T08:11:04.744Z,93954.00
2022-11-22T08:15:08.718Z,93957.00
2022-11-22T08:19:15.877Z,93970.00
2022-11-22T08:23:18.782Z,93965.00
2022-11-22T08:27:22.889Z,93984.00
2022-11-22T08:31:27.018Z,93994.00
2022-11-22T08:35:29.732Z,93997.00
2022-11-22T08:39:32.546Z,93991.00
2022-11-22T08:43:36.652Z,94002.00
2022-11-22T08:47:39.381Z,94008.00
2022-11-22T08:51:45.038Z,94011.00
2022-11-22T08:55:47.846Z,94011.00
2022-11-22T08:59:51.881Z,94013.00
2022-11-22T09:03:54.589Z,94014.00
2022-11-22T09:12:20.166Z,94017.00
2022-11-22T09:16:24.430Z,94034.00
2022-11-22T09:20:27.210Z,94030.00
2022-11-22T09:24:29.963Z,94039.00
2022-11-22T09:28:32.940Z,94043.00
2022-11-22T09:32:36.996Z,94049.00
2022-11-22T09:36:39.726Z,94054.00
2022-11-22T09:40:47.133Z,94058.00
2022-11-22T09:45:23.968Z,94071.00
2022-11-22T09:49:30.424Z,94071.00
2022-11-22T09:53:38.579Z,94066.00
2022-11-22T09:57:46.831Z,94058.00
2022-11-22T10:01:54.342Z,94063.00
2022-11-22T10:06:01.917Z,94060.00
2022-11-22T10:10:08.870Z,94062.00
2022-11-22T10:14:23.382Z,94068.00
2022-11-22T10:18:35.296Z,94066.00
2022-11-22T10:22:39.581Z,94062.00
2022-11-22T10:26:42.691Z,94064.00
2022-11-22T10:30:53.958Z,94070.00
2022-11-22T10:35:16.805Z,94058.00
2022-11-22T10:39:34.238Z,94060.00
2022-11-22T10:43:42.954Z,94055.00
2022-11-22T10:47:53.950Z,94052.00
2022-11-22T10:52:02.850Z,94057.00
2022-11-22T10:56:13.668Z,94048.00
2022-11-22T11:00:20.801Z,94041.00
2022-11-22T11:04:25.461Z,94048.00
2022-11-22T11:09:23.365Z,94065.00
2022-11-22T11:13:03.576Z,94055.00
2022-11-22T11:17:06.958Z,94052.00
2022-11-22T11:21:13.697Z,94059.00
2022-11-22T11:25:33.515Z,94065.00
2022-11-22T11:29:43.688Z,94057.00
2022-11-22T11:33:47.732Z,94038.00
2022-11-22T11:37:50.512Z,94043.00
2022-11-22T11:41:53.230Z,94049.00
2022-11-22T11:46:17.385Z,94041.00
2022-11-22T11:50:24.237Z,94048.00
2022-11-22T11:54:36.652Z,94053.00
2022-11-22T11:58:39.467Z,94048.00
2022-11-22T12:02:46.317Z,94051.00
2022-11-22T12:07:03.748Z,94052.00
2022-11-22T12:11:10.999Z,94040.00
2022-11-22T12:15:20.417Z,94040.00
2022-11-22T12:19:32.227Z,94035.00
2022-11-22T12:23:40.671Z,94034.00
2022-11-22T12:27:43.502Z,94035.00
2022-11-22T12:31:52.964Z,94026.00
2022-11-22T12:35:57.836Z,94027.00
2022-11-22T12:40:13.748Z,94015.00
2022-11-22T12:44:19.373Z,94018.00
2022-11-22T12:48:25.561Z,94013.00
2022-11-22T12:52:32.726Z,94007.00
2022-11-22T12:56:45.216Z,94007.00
2022-11-22T13:01:00.425Z,94004.00
2022-11-22T13:05:05.733Z,94002.00
2022-11-22T13:09:18.162Z,94002.00
2022-11-22T13:13:25.682Z,94010.00
2022-11-22T13:17:33.546Z,94008.00
2022-11-22T13:21:47.959Z,94006.00
2022-11-22T13:26:10.339Z,94018.00
2022-11-22T13:30:20.439Z,94012.00
2022-11-22T13:34:26.514Z,94008.00
2022-11-22T13:38:29.775Z,94009.00
2022-11-22T13:42:33.874Z,94008.00
2022-11-22T13:46:57.978Z,94019.00
2022-11-22T13:51:02.139Z,94020.00
2022-11-22T13:55:38.782Z,94031.00
2022-11-22T13:59:46.319Z,94032.00
2022-11-22T14:03:49.193Z,94027.00
2022-11-22T14:07:53.427Z,94032.00
2022-11-22T14:12:20.901Z,94039.00
2022-11-22T14:16:44.030Z,94041.00
2022-11-22T14:21:00.169Z,94039.00
2022-11-22T14:25:20.397Z,94046.00
2022-11-22T14:30:04.220Z,94061.00
2022-11-22T14:34:23.405Z,94064.00
2022-11-22T14:38:32.081Z,94059.00
2022-11-22T14:42:50.474Z,94068.00
2022-11-22T14:46:57.524Z,94062.00
2022-11-22T14:51:09.117Z,94072.00
2022-11-22T14:55:17.864Z,94075.00
2022-11-22T14:59:52.247Z,94079.00
2022-11-22T15:09:12.941Z,94083.00
2022-11-22T15:09:45.168Z,94076.00
2022-11-22T15:14:24.734Z,94075.00
2022-11-22T15:58:46.570Z,94088.00
2022-11-22T16:02:52.399Z,94091.00
2022-11-22T16:06:56.513Z,94100.00
2022-11-22T16:10:59.445Z,94103.00
2022-11-22T16:15:20.370Z,94111.00
2022-11-22T16:19:25.361Z,94116.00
2022-11-22T16:23:29.364Z,94119.00
2022-11-22T16:27:32.113Z,94114.00
2022-11-22T16:31:34.945Z,94119.00
2022-11-22T16:35:39.187Z,94119.00
2022-11-22T16:39:41.900Z,94116.00
2022-11-22T16:43:45.078Z,94114.00
2022-11-22T16:47:58.283Z,94111.00
2022-11-22T16:52:13.135Z,94116.00
2022-11-22T16:56:20.393Z,94118.00
2022-11-22T17:00:23.148Z,94128.00
2022-11-22T17:04:27.579Z,94121.00
2022-11-22T17:08:31.725Z,94132.00
2022-11-22T17:12:34.445Z,94138.00
2022-11-22T17:16:37.313Z,94135.00
2022-11-22T17:20:40.650Z,94138.00
2022-11-22T17:24:44.785Z,94138.00
2022-11-22T17:28:47.529Z,94141.00
2022-11-22T17:32:50.247Z,94134.00
2022-11-22T17:36:52.944Z,94137.00
2022-11-22T17:41:01.308Z,94132.00
2022-11-22T17:45:04.201Z,94143.00
2022-11-22T17:49:11.229Z,94140.00
2022-11-22T17:53:18.352Z,94136.00
2022-11-22T17:57:22.454Z,94133.00
2022-11-22T18:01:25.602Z,94125.00
2022-11-22T18:05:28.347Z,94139.00
2022-11-22T18:09:31.519Z,94142.00
2022-11-22T18:13:37.374Z,94144.00
2022-11-22T18:17:40.141Z,94149.00
2022-11-22T18:21:43.153Z,94149.00
2022-11-22T18:25:46.078Z,94153.00
2022-11-22T18:29:50.167Z,94152.00
2022-11-22T18:33:52.921Z,94149.00
2022-11-22T18:37:55.727Z,94149.00
2022-11-22T18:41:58.473Z,94154.00
2022-11-22T18:46:03.040Z,94157.00
2022-11-22T18:50:12.158Z,94165.00
2022-11-22T18:54:15.956Z,94173.00
2022-11-22T18:58:18.636Z,94177.00
2022-11-22T19:02:25.708Z,94177.00
2022-11-22T19:06:28.392Z,94181.00
2022-11-22T19:10:31.084Z,94190.00
2022-11-22T19:14:34.013Z,94187.00
2022-11-22T19:18:42.689Z,94185.00
2022-11-22T19:22:45.854Z,94179.00
2022-11-22T19:26:48.565Z,94171.00
2022-11-22T19:30:51.269Z,94176.00
2022-11-22T19:34:55.309Z,94191.00
2022-11-22T19:38:58.302Z,94180.00
2022-11-22T19:43:01.302Z,94190.00
2022-11-22T19:47:04.010Z,94195.00
2022-11-22T19:51:08.789Z,94192.00
2022-11-22T19:55:11.484Z,94192.00
2022-11-22T19:59:15.950Z,94196.00
2022-11-22T20:03:18.702Z,94207.00
2022-11-22T20:07:22.858Z,94207.00
2022-11-22T20:11:25.625Z,94206.00
2022-11-22T20:15:28.371Z,94205.00
2022-11-22T20:19:34.290Z,94212.00
2022-11-22T20:23:39.185Z,94200.00
2022-11-22T20:27:42.003Z,94210.00
2022-11-22T20:31:44.801Z,94208.00
2022-11-22T20:35:47.508Z,94210.00
2022-11-22T20:39:51.582Z,94200.00
2022-11-22T20:43:54.466Z,94214.00
2022-11-22T20:47:57.176Z,94219.00
2022-11-22T20:51:59.877Z,94221.00
2022-11-22T20:56:04.682Z,94229.00
2022-11-22T21:00:08.632Z,94224.00
2022-11-22T21:04:11.392Z,94224.00
2022-11-22T21:08:14.474Z,94230.00
2022-11-22T21:12:19.138Z,94234.00
2022-11-22T21:16:24.658Z,94231.00
2022-11-22T21:20:27.686Z,94241.00
2022-11-22T21:24:30.650Z,94242.00
2022-11-22T21:28:35.835Z,94243.00
2022-11-22T21:32:38.750Z,94249.00
2022-11-22T21:36:41.464Z,94253.00
2022-11-22T21:40:51.245Z,94253.00
2022-11-22T21:44:55.342Z,94252.00
2022-11-22T21:48:58.059Z,94253.00
2022-11-22T21:53:01.848Z,94261.00
2022-11-22T21:57:04.680Z,94253.00
2022-11-22T22:01:14.068Z,94260.00
2022-11-22T22:05:17.628Z,94260.00
2022-11-22T22:09:20.411Z,94260.00
2022-11-22T22:13:23.097Z,94260.00
2022-11-22T22:17:27.156Z,94259.00
2022-11-22T22:21:29.969Z,94255.00
2022-11-22T22:25:33.614Z,94267.00
2022-11-22T22:29:36.416Z,94263.00
2022-11-22T22:33:42.221Z,94273.00
2022-11-22T22:37:44.914Z,94262.00
2022-11-22T22:41:47.624Z,94265.00
2022-11-22T22:45:50.894Z,94273.00
2022-11-22T22:49:54.979Z,94274.00
2022-11-22T22:53:58.348Z,94279.00
2022-11-22T22:58:01.169Z,94285.00
2022-11-22T23:02:04.346Z,94301.00
2022-11-22T23:06:10.415Z,94301.00
2022-11-22T23:10:13.153Z,94306.00
2022-11-22T23:14:18.074Z,94298.00
2022-11-22T23:18:20.793Z,94291.00
2022-11-22T23:22:26.142Z,94302.00
2022-11-22T23:26:29.249Z,94300.00
2022-11-22T23:30:32.012Z,94308.00
2022-11-22T23:34:35.066Z,94303.00
2022-11-22T23:38:39.778Z,94314.00
2022-11-22T23:42:42.529Z,94314.00
2022-11-22T23:46:45.208Z,94318.00
2022-11-22T23:50:47.896Z,94316.00
2022-11-22T23:54:51.973Z,94318.00
2022-11-22T23:58:54.980Z,94305.00
